Time;durP1;ratioP1;P1;durP2;ratioP2;P2;SDS_P1;SDS_P2;PMS_P1;PMS_P2;Temp;Humidity;BMP_temperature;BMP_pressure;BME280_temperature;BME280_humidity;BME280_pressure;Samples;Min_cycle;Max_cycle;Signal;HPM_P1;HPM_P2
2023/01/19 00:01:41;;;;;;;360.57;347.37;;;1.30;99.90;;;;;;4992252;28;20467;-84
2023/01/19 00:04:08;;;;;;;364.30;350.70;;;1.10;99.90;;;;;;4992825;28;20451;-83
2023/01/19 00:06:35;;;;;;;382.13;368.30;;;1.10;99.90;;;;;;4993112;28;20450;-84
2023/01/19 00:09:01;;;;;;;389.90;375.87;;;1.00;99.90;;;;;;4992809;28;20455;-83
2023/01/19 00:11:28;;;;;;;417.80;401.87;;;1.00;99.90;;;;;;4996345;28;20474;-84
2023/01/19 00:13:55;;;;;;;407.97;392.80;;;1.00;99.90;;;;;;5011980;28;20493;-84
2023/01/19 00:16:22;;;;;;;416.77;401.63;;;0.90;99.90;;;;;;5011600;28;20459;-83
2023/01/19 00:18:52;;;;;;;405.17;390.27;;;0.80;99.90;;;;;;5005849;28;20455;-84
2023/01/19 00:21:20;;;;;;;428.00;412.00;;;0.80;99.90;;;;;;5000018;28;20469;-83
2023/01/19 00:23:49;;;;;;;445.70;428.97;;;0.70;99.90;;;;;;5020096;28;20462;-83
2023/01/19 00:26:17;;;;;;;465.80;447.93;;;0.80;99.90;;;;;;5012991;28;20924;-83
2023/01/19 00:28:44;;;;;;;496.20;476.90;;;0.70;99.90;;;;;;5014078;28;20466;-84
2023/01/19 00:31:13;;;;;;;495.47;475.33;;;0.60;99.90;;;;;;5029632;23;20466;-80
2023/01/19 00:33:40;;;;;;;505.98;485.52;;;0.70;99.90;;;;;;4983549;28;20463;-81
2023/01/19 00:36:09;;;;;;;537.37;514.60;;;0.60;99.90;;;;;;4983344;28;20206;-78
2023/01/19 00:38:37;;;;;;;548.47;524.83;;;0.70;99.90;;;;;;4983628;28;20451;-81
2023/01/19 00:41:04;;;;;;;543.80;520.60;;;0.70;99.90;;;;;;4992359;28;20453;-81
2023/01/19 00:43:31;;;;;;;537.10;513.60;;;0.80;99.90;;;;;;5021693;28;20520;-81
2023/01/19 00:45:58;;;;;;;547.27;523.53;;;0.60;99.90;;;;;;5018338;28;20454;-82
2023/01/19 00:48:25;;;;;;;558.20;532.30;;;0.70;99.90;;;;;;5003219;28;20465;-82
2023/01/19 00:50:52;;;;;;;531.47;508.67;;;0.80;99.90;;;;;;5021377;28;20940;-80
2023/01/19 00:53:20;;;;;;;530.87;507.80;;;0.80;99.90;;;;;;5022400;28;20477;-82
2023/01/19 00:55:47;;;;;;;524.47;501.47;;;0.80;99.90;;;;;;5021277;28;20475;-81
2023/01/19 00:58:14;;;;;;;526.13;502.97;;;0.70;99.90;;;;;;5001970;28;20835;-81
2023/01/19 01:00:40;;;;;;;532.90;508.43;;;0.70;99.90;;;;;;5002372;28;20450;-81
2023/01/19 01:03:07;;;;;;;523.97;500.43;;;0.80;99.90;;;;;;5001808;28;20478;-80
2023/01/19 01:05:34;;;;;;;519.93;495.93;;;0.80;99.90;;;;;;5001904;28;20791;-81
2023/01/19 01:08:01;;;;;;;522.17;499.27;;;0.70;99.90;;;;;;5002018;28;20458;-81
2023/01/19 01:10:29;;;;;;;529.23;505.87;;;0.60;99.90;;;;;;5010831;28;20198;-81
2023/01/19 01:12:56;;;;;;;549.37;524.77;;;0.60;99.90;;;;;;5021382;28;20485;-81
2023/01/19 01:15:25;;;;;;;549.60;525.20;;;0.60;99.90;;;;;;5021467;28;20454;-81
2023/01/19 01:17:51;;;;;;;558.37;533.00;;;0.60;99.90;;;;;;5021423;28;20494;-81
2023/01/19 01:20:21;;;;;;;553.37;527.77;;;0.60;99.90;;;;;;5021030;28;20449;-80
2023/01/19 01:22:50;;;;;;;575.30;548.30;;;0.60;99.90;;;;;;5021644;28;20983;-81
2023/01/19 01:25:21;;;;;;;581.67;554.13;;;0.60;99.90;;;;;;5015626;28;20527;-80
2023/01/19 01:27:49;;;;;;;555.70;530.10;;;0.60;99.90;;;;;;5002096;28;20786;-81
2023/01/19 01:30:16;;;;;;;559.83;534.47;;;0.70;99.90;;;;;;5006401;28;20468;-81
2023/01/19 01:32:45;;;;;;;567.17;540.27;;;0.70;99.90;;;;;;5021185;28;20865;-81
2023/01/19 01:35:13;;;;;;;566.70;539.83;;;0.80;99.90;;;;;;5017681;28;20466;-82
2023/01/19 01:37:41;;;;;;;567.40;539.50;;;0.80;99.90;;;;;;5001456;28;20546;-81
2023/01/19 01:40:11;;;;;;;555.97;528.63;;;0.90;99.90;;;;;;5001361;28;20450;-81
2023/01/19 01:42:39;;;;;;;528.70;504.20;;;0.90;99.90;;;;;;5001398;28;20466;-81
2023/01/19 01:45:25;;;;;;;523.00;499.08;;;0.80;99.90;;;;;;5005595;28;20450;-81
2023/01/19 01:47:54;;;;;;;525.73;501.07;;;1.00;99.90;;;;;;5021043;28;20212;-81
2023/01/19 01:50:24;;;;;;;502.00;479.50;;;0.90;99.90;;;;;;5014744;28;20454;-81
2023/01/19 01:52:56;;;;;;;496.50;474.83;;;0.90;99.90;;;;;;5001677;28;20489;-82
2023/01/19 01:55:24;;;;;;;473.23;452.80;;;1.00;99.90;;;;;;5006035;28;20445;-81
2023/01/19 01:57:56;;;;;;;472.33;451.77;;;1.10;99.90;;;;;;5011903;28;20454;-81
2023/01/19 02:00:25;;;;;;;463.80;445.13;;;1.00;99.90;;;;;;5001317;28;20552;-80
2023/01/19 02:02:51;;;;;;;450.77;432.00;;;0.90;99.90;;;;;;5006125;28;20471;-81
2023/01/19 02:05:21;;;;;;;460.97;439.73;;;1.00;99.90;;;;;;5020627;28;20866;-82
2023/01/19 02:13:24;;;;;;;426.73;409.80;;;1.10;99.90;;;;;;5013151;28;20463;-81
2023/01/19 02:15:54;;;;;;;417.37;401.30;;;1.00;99.90;;;;;;5000825;28;20517;-81
2023/01/19 02:18:23;;;;;;;411.53;395.20;;;1.10;99.90;;;;;;5001393;28;20458;-82
2023/01/19 02:21:09;;;;;;;411.83;395.13;;;1.00;99.90;;;;;;5000867;28;20461;-79
2023/01/19 02:23:43;;;;;;;416.70;400.77;;;0.90;99.90;;;;;;5009287;28;20810;-82
2023/01/19 02:26:13;;;;;;;418.40;401.50;;;0.90;99.90;;;;;;4981977;28;20439;-82
2023/01/19 02:31:46;;;;;;;406.90;391.10;;;1.00;99.90;;;;;;4980539;28;20466;-82
2023/01/19 02:34:16;;;;;;;394.80;379.60;;;1.10;99.90;;;;;;5003793;28;20477;-82
2023/01/19 02:36:48;;;;;;;392.30;377.47;;;1.00;99.90;;;;;;5020782;28;20449;-82
2023/01/19 02:39:20;;;;;;;392.70;377.70;;;0.90;99.90;;;;;;5008959;28;20439;-82
2023/01/19 02:41:51;;;;;;;371.60;357.20;;;1.00;99.90;;;;;;5001211;28;20478;-82
2023/01/19 02:44:19;;;;;;;391.23;376.73;;;0.90;99.90;;;;;;5012886;28;20194;-82
2023/01/19 02:46:46;;;;;;;397.77;381.87;;;1.00;99.90;;;;;;5020271;28;20194;-81
2023/01/19 02:49:13;;;;;;;389.00;374.20;;;1.00;99.90;;;;;;5016075;28;20452;-81
2023/01/19 02:51:43;;;;;;;382.83;368.33;;;1.00;99.90;;;;;;5021165;28;20480;-81
2023/01/19 02:54:32;;;;;;;379.23;365.10;;;1.00;99.90;;;;;;5020484;28;20473;-82
2023/01/19 02:57:16;;;;;;;379.47;365.17;;;1.00;99.90;;;;;;5020633;28;20445;-82
2023/01/19 02:59:53;;;;;;;389.90;374.87;;;1.00;99.90;;;;;;5020569;28;20444;-82
2023/01/19 03:02:33;;;;;;;395.50;380.07;;;1.10;99.90;;;;;;5020372;28;20480;-82
2023/01/19 03:05:16;;;;;;;381.83;367.23;;;1.20;99.90;;;;;;5022622;28;20849;-82
2023/01/19 03:07:51;;;;;;;340.30;327.80;;;1.20;99.90;;;;;;4985300;28;20450;-82
2023/01/19 03:10:28;;;;;;;323.03;310.60;;;1.40;99.90;;;;;;5019995;28;20540;-82
2023/01/19 03:13:02;;;;;;;302.13;290.70;;;1.30;99.90;;;;;;5024026;28;20480;-81
2023/01/19 03:15:34;;;;;;;301.90;291.00;;;1.30;99.90;;;;;;5024754;28;20500;-82
2023/01/19 03:18:03;;;;;;;306.07;294.40;;;1.30;99.90;;;;;;5023397;28;20463;-82
2023/01/19 03:20:30;;;;;;;280.03;269.93;;;1.20;99.90;;;;;;5005535;28;20454;-82
2023/01/19 03:23:02;;;;;;;274.73;264.53;;;1.30;99.90;;;;;;5004112;28;20481;-82
2023/01/19 03:25:36;;;;;;;246.17;237.47;;;1.30;99.90;;;;;;5004621;28;20457;-82
2023/01/19 03:28:04;;;;;;;215.43;207.93;;;1.40;99.90;;;;;;5005896;28;20453;-85
2023/01/19 03:30:34;;;;;;;195.60;188.50;;;1.50;99.90;;;;;;5023730;28;20719;-81
2023/01/19 03:33:06;;;;;;;187.83;180.97;;;1.40;99.90;;;;;;5023346;28;20545;-81
2023/01/19 03:35:36;;;;;;;182.47;175.20;;;1.50;99.90;;;;;;5023335;28;20492;-82
2023/01/19 03:38:07;;;;;;;165.90;159.00;;;1.50;99.90;;;;;;5021463;28;20954;-82
2023/01/19 03:40:37;;;;;;;150.47;144.57;;;1.50;99.90;;;;;;5004062;28;20443;-82
2023/01/19 03:43:05;;;;;;;143.10;137.03;;;1.60;99.90;;;;;;5003454;28;20524;-81
2023/01/19 03:45:34;;;;;;;95.17;91.27;;;1.60;99.90;;;;;;5003869;28;20834;-82
2023/01/19 03:48:01;;;;;;;95.43;91.43;;;1.70;99.90;;;;;;5002705;28;20450;-81
2023/01/19 03:50:32;;;;;;;68.03;64.60;;;1.70;99.90;;;;;;5016093;28;20463;-81
2023/01/19 03:53:08;;;;;;;64.37;61.00;;;1.80;99.90;;;;;;5023251;28;20480;-81
2023/01/19 03:55:38;;;;;;;53.17;49.90;;;1.90;99.90;;;;;;4984386;28;20435;-81
2023/01/19 03:58:04;;;;;;;50.33;47.63;;;1.80;99.90;;;;;;4980305;28;20459;-79
2023/01/19 04:00:31;;;;;;;46.10;42.93;;;1.90;99.90;;;;;;4978587;28;20470;-79
2023/01/19 04:02:59;;;;;;;46.83;44.20;;;1.90;99.90;;;;;;5002749;28;20469;-79
2023/01/19 04:05:25;;;;;;;50.70;47.30;;;1.90;99.90;;;;;;5017447;28;21010;-78
2023/01/19 04:07:53;;;;;;;47.30;44.70;;;1.90;99.90;;;;;;5010593;28;20774;-79
2023/01/19 04:10:23;;;;;;;47.97;45.30;;;1.90;99.90;;;;;;5011248;28;20452;-79
2023/01/19 04:12:57;;;;;;;40.57;38.10;;;2.00;99.90;;;;;;5019458;28;20473;-80
2023/01/19 04:15:25;;;;;;;43.00;40.70;;;2.00;99.90;;;;;;5000015;28;20572;-80
2023/01/19 04:17:52;;;;;;;40.80;37.83;;;1.90;99.90;;;;;;5001172;28;20446;-80
2023/01/19 04:20:20;;;;;;;42.10;39.90;;;1.90;99.90;;;;;;5001392;28;20454;-81
2023/01/19 04:22:47;;;;;;;50.00;47.40;;;1.90;99.90;;;;;;5010524;28;20480;-79
2023/01/19 04:25:18;;;;;;;70.07;66.00;;;1.90;99.90;;;;;;4999976;28;20458;-81
2023/01/19 04:27:44;;;;;;;88.87;85.13;;;1.70;99.90;;;;;;4988375;28;20455;-80
2023/01/19 04:30:14;;;;;;;108.77;103.97;;;1.80;99.90;;;;;;5002120;28;20486;-81
2023/01/19 04:32:40;;;;;;;119.70;114.40;;;1.70;99.90;;;;;;5001200;28;20553;-82
2023/01/19 04:35:08;;;;;;;133.47;127.77;;;1.70;99.90;;;;;;5002052;28;20481;-80
2023/01/19 04:37:34;;;;;;;131.63;126.43;;;1.70;99.90;;;;;;5001791;28;20458;-81
2023/01/19 04:40:01;;;;;;;127.60;122.13;;;1.80;99.90;;;;;;5002525;28;20458;-80
2023/01/19 04:42:28;;;;;;;118.60;113.43;;;1.90;99.90;;;;;;5001487;28;20544;-81
2023/01/19 04:44:55;;;;;;;107.23;103.00;;;1.80;99.90;;;;;;5002981;28;20453;-81
2023/01/19 04:47:23;;;;;;;106.20;101.80;;;1.80;99.90;;;;;;5002712;28;20460;-80
2023/01/19 04:49:50;;;;;;;109.47;104.57;;;2.00;99.90;;;;;;5002134;28;20972;-80
2023/01/19 04:52:17;;;;;;;109.07;104.53;;;1.90;99.90;;;;;;5001902;28;20470;-81
2023/01/19 04:54:43;;;;;;;103.93;97.97;;;2.00;99.90;;;;;;5001588;28;20490;-80
2023/01/19 04:57:10;;;;;;;108.53;103.90;;;1.90;99.90;;;;;;5004440;28;20465;-80
2023/01/19 04:59:37;;;;;;;121.53;116.37;;;1.90;99.90;;;;;;5001853;28;20451;-81
2023/01/19 05:02:04;;;;;;;130.23;124.70;;;1.90;99.90;;;;;;5001748;28;20484;-79
2023/01/19 05:04:32;;;;;;;151.70;145.40;;;1.90;99.90;;;;;;5011252;28;21066;-81
2023/01/19 05:06:59;;;;;;;203.43;196.20;;;1.80;99.90;;;;;;5003749;28;20462;-81
2023/01/19 05:09:26;;;;;;;279.33;269.43;;;1.80;99.90;;;;;;5009939;28;20445;-80
2023/01/19 05:11:53;;;;;;;352.50;340.10;;;1.60;99.90;;;;;;5020379;28;20519;-80
2023/01/19 05:14:20;;;;;;;439.60;423.20;;;1.50;99.90;;;;;;5003460;28;20485;-80
2023/01/19 05:16:46;;;;;;;530.43;507.93;;;1.40;99.90;;;;;;5003291;28;20446;-81
2023/01/19 05:19:14;;;;;;;578.50;553.53;;;1.30;99.90;;;;;;5005324;28;20454;-81
2023/01/19 05:21:42;;;;;;;638.37;607.27;;;1.30;99.90;;;;;;5001849;28;20466;-82
2023/01/19 05:24:09;;;;;;;645.10;613.33;;;1.20;99.90;;;;;;5008368;28;20449;-81
2023/01/19 05:26:36;;;;;;;631.47;601.47;;;1.20;99.90;;;;;;5007919;28;20525;-80
2023/01/19 05:29:03;;;;;;;667.37;632.07;;;1.10;99.90;;;;;;4999117;28;20545;-80
2023/01/19 05:31:29;;;;;;;652.97;617.78;;;1.10;99.90;;;;;;5004188;28;20463;-80
2023/01/19 05:33:56;;;;;;;658.10;622.20;;;1.10;99.90;;;;;;4999737;28;20223;-81
2023/01/19 05:36:23;;;;;;;659.73;621.57;;;1.00;99.90;;;;;;5000886;28;20493;-81
2023/01/19 05:38:51;;;;;;;665.47;625.40;;;0.90;99.90;;;;;;5001020;28;20464;-81
2023/01/19 05:41:18;;;;;;;684.17;639.70;;;0.90;99.90;;;;;;5000832;28;20482;-81
2023/01/19 05:43:44;;;;;;;681.27;637.80;;;0.90;99.90;;;;;;5000054;28;20450;-82
2023/01/19 05:46:11;;;;;;;687.83;641.97;;;0.90;99.90;;;;;;4997919;28;20461;-79
2023/01/19 05:48:38;;;;;;;696.53;648.83;;;0.90;99.90;;;;;;4995014;28;20453;-78
2023/01/19 05:51:06;;;;;;;693.30;645.10;;;0.90;99.90;;;;;;4996299;28;20991;-81
2023/01/19 05:53:33;;;;;;;686.17;639.17;;;0.80;99.90;;;;;;4996608;28;20454;-80
2023/01/19 05:56:02;;;;;;;698.53;649.47;;;0.90;99.90;;;;;;4997783;28;20490;-80
2023/01/19 05:58:33;;;;;;;712.93;660.73;;;0.80;99.90;;;;;;4999147;28;20457;-80
2023/01/19 06:01:04;;;;;;;703.63;651.20;;;0.80;99.90;;;;;;4999070;28;20673;-79
2023/01/19 06:03:33;;;;;;;696.53;642.73;;;0.80;99.90;;;;;;4999965;28;20493;-80
2023/01/19 06:06:00;;;;;;;683.87;633.90;;;0.80;99.90;;;;;;4999910;28;20454;-80
2023/01/19 06:08:28;;;;;;;700.70;646.57;;;0.90;99.90;;;;;;5000097;28;20466;-80
2023/01/19 06:10:54;;;;;;;713.67;658.27;;;0.90;99.90;;;;;;5000335;28;20457;-80
2023/01/19 06:13:22;;;;;;;706.93;653.47;;;0.90;99.90;;;;;;5001083;28;20461;-76
2023/01/19 06:15:56;;;;;;;714.03;656.50;;;0.90;99.90;;;;;;5001765;28;20530;-80
2023/01/19 06:18:23;;;;;;;713.63;656.95;;;0.90;99.90;;;;;;5002278;28;20457;-79
2023/01/19 06:20:51;;;;;;;711.80;657.93;;;0.90;99.90;;;;;;5002572;28;20199;-80
2023/01/19 06:23:17;;;;;;;713.20;656.83;;;0.90;99.90;;;;;;5002383;28;20454;-80
2023/01/19 06:25:44;;;;;;;737.07;678.77;;;0.90;99.90;;;;;;5001430;28;20835;-80
2023/01/19 06:28:11;;;;;;;734.00;675.57;;;0.90;99.90;;;;;;5001378;28;20458;-80
2023/01/19 06:30:52;;;;;;;723.37;667.90;;;1.00;99.90;;;;;;5001007;28;20453;-78
2023/01/19 06:33:20;;;;;;;735.87;678.47;;;0.90;99.90;;;;;;5001704;28;20532;-80
2023/01/19 06:35:48;;;;;;;714.53;657.53;;;0.90;99.90;;;;;;5001106;28;20484;-80
2023/01/19 06:38:16;;;;;;;721.03;663.73;;;1.00;99.90;;;;;;5000050;28;20464;-80
2023/01/19 06:40:44;;;;;;;737.93;678.63;;;1.10;99.90;;;;;;5003986;28;20472;-80
2023/01/19 06:43:13;;;;;;;739.70;681.37;;;1.10;99.90;;;;;;5004226;28;20477;-80
2023/01/19 06:45:39;;;;;;;731.23;672.57;;;1.00;99.90;;;;;;5003767;28;20553;-81
2023/01/19 06:48:19;;;;;;;740.87;678.03;;;1.10;99.90;;;;;;5003784;28;20556;-81
2023/01/19 06:50:46;;;;;;;739.70;677.10;;;1.00;99.90;;;;;;5004192;28;20483;-80
2023/01/19 06:53:15;;;;;;;725.50;666.17;;;0.90;99.90;;;;;;5003505;28;20899;-80
2023/01/19 06:55:42;;;;;;;733.93;671.27;;;1.00;99.90;;;;;;5003748;28;20488;-80
2023/01/19 06:58:12;;;;;;;722.58;662.47;;;0.90;99.90;;;;;;5004029;28;20457;-81
2023/01/19 07:00:39;;;;;;;738.47;677.97;;;1.00;99.90;;;;;;5003757;28;20195;-81
2023/01/19 07:03:07;;;;;;;733.13;672.43;;;1.00;99.90;;;;;;5004061;28;20847;-81
2023/01/19 07:05:36;;;;;;;734.57;672.27;;;1.00;99.90;;;;;;5004024;28;20504;-81
2023/01/19 07:08:03;;;;;;;759.87;697.53;;;1.10;99.90;;;;;;5003677;28;20536;-82
2023/01/19 07:10:30;;;;;;;762.37;702.13;;;1.00;99.90;;;;;;5003488;28;20486;-81
2023/01/19 07:12:57;;;;;;;751.20;689.73;;;1.00;99.90;;;;;;5004123;28;20863;-82
2023/01/19 07:15:24;;;;;;;748.50;686.63;;;1.10;99.90;;;;;;5003474;28;20473;-82
2023/01/19 07:17:51;;;;;;;731.17;673.17;;;1.00;99.90;;;;;;5003650;28;20473;-82
2023/01/19 07:20:18;;;;;;;732.43;672.70;;;1.10;99.90;;;;;;5003946;28;20525;-81
2023/01/19 07:22:47;;;;;;;741.30;680.90;;;1.00;99.90;;;;;;5002490;28;20469;-81
2023/01/19 07:25:14;;;;;;;739.80;678.50;;;1.00;99.90;;;;;;5003136;28;20450;-80
2023/01/19 07:27:41;;;;;;;751.53;689.77;;;1.00;99.90;;;;;;5004258;28;20453;-82
2023/01/19 07:30:10;;;;;;;760.50;698.63;;;1.20;99.90;;;;;;5004812;28;20460;-82
2023/01/19 07:32:37;;;;;;;760.93;698.57;;;1.00;99.90;;;;;;5004045;28;20989;-82
2023/01/19 07:35:04;;;;;;;735.90;674.40;;;1.00;99.90;;;;;;5004611;28;20488;-81
2023/01/19 07:37:31;;;;;;;736.17;676.27;;;1.00;99.90;;;;;;5002985;28;20453;-80
2023/01/19 07:39:59;;;;;;;759.13;698.73;;;1.10;99.90;;;;;;5003758;28;20950;-82
2023/01/19 07:42:26;;;;;;;753.87;692.10;;;1.10;99.90;;;;;;5004858;28;20566;-82
2023/01/19 07:44:53;;;;;;;754.70;690.90;;;1.10;99.90;;;;;;5005089;28;20517;-82
2023/01/19 07:47:20;;;;;;;748.13;686.60;;;1.20;99.90;;;;;;5004666;28;20564;-81
2023/01/19 07:49:47;;;;;;;762.87;699.67;;;1.10;99.90;;;;;;5005061;28;20826;-81
2023/01/19 07:52:14;;;;;;;749.97;687.67;;;1.20;99.90;;;;;;5004943;28;20578;-81
2023/01/19 07:54:41;;;;;;;739.43;677.43;;;1.10;99.90;;;;;;5004245;28;20537;-81
2023/01/19 07:57:09;;;;;;;745.67;683.57;;;1.20;99.90;;;;;;4984124;28;20526;-79
2023/01/19 07:59:37;;;;;;;749.57;686.87;;;1.10;99.90;;;;;;4985481;28;20459;-80
2023/01/19 08:02:04;;;;;;;739.50;677.10;;;1.20;99.90;;;;;;4984130;28;20482;-81
2023/01/19 08:04:31;;;;;;;724.03;662.47;;;1.30;99.90;;;;;;4985045;28;20451;-82
2023/01/19 08:06:58;;;;;;;724.80;664.80;;;1.20;99.90;;;;;;4985657;28;20486;-81
2023/01/19 08:09:25;;;;;;;727.10;665.00;;;1.20;99.90;;;;;;4985581;28;20459;-81
2023/01/19 08:11:53;;;;;;;711.50;652.70;;;1.20;99.90;;;;;;4985935;28;20475;-82
2023/01/19 08:14:21;;;;;;;717.00;656.80;;;1.30;99.90;;;;;;4986909;28;20478;-81
2023/01/19 08:16:48;;;;;;;714.97;654.70;;;1.30;99.90;;;;;;4985992;28;20459;-81
2023/01/19 08:19:15;;;;;;;719.60;658.67;;;1.20;99.90;;;;;;4987240;28;20455;-81
2023/01/19 08:21:42;;;;;;;718.47;658.87;;;1.30;99.90;;;;;;4987021;28;20475;-81
2023/01/19 08:24:18;;;;;;;709.07;650.87;;;1.30;99.90;;;;;;4986001;28;20466;-80
2023/01/19 08:26:45;;;;;;;712.97;655.67;;;1.30;99.90;;;;;;4985119;28;20435;-81
2023/01/19 08:29:11;;;;;;;714.73;656.50;;;1.40;99.90;;;;;;4985103;28;20466;-80
2023/01/19 08:31:40;;;;;;;716.13;659.03;;;1.40;99.90;;;;;;4984119;28;20582;-80
2023/01/19 08:34:09;;;;;;;711.67;655.60;;;1.40;99.90;;;;;;4982378;28;20486;-80
2023/01/19 08:36:36;;;;;;;723.47;665.73;;;1.40;99.90;;;;;;4983933;28;20817;-81
2023/01/19 08:39:04;;;;;;;713.57;656.67;;;1.50;99.90;;;;;;4985946;28;20459;-81
2023/01/19 08:41:31;;;;;;;720.63;662.43;;;1.40;99.90;;;;;;4986082;28;20565;-81
2023/01/19 08:43:58;;;;;;;721.40;663.83;;;1.50;99.90;;;;;;4986721;28;20522;-82
2023/01/19 08:46:24;;;;;;;717.97;660.47;;;1.50;99.90;;;;;;4986926;28;20447;-83
2023/01/19 08:48:53;;;;;;;711.40;655.60;;;1.60;99.90;;;;;;4985870;28;20467;-83
2023/01/19 08:51:21;;;;;;;720.07;664.70;;;1.60;99.90;;;;;;4985544;28;20467;-81
2023/01/19 08:53:49;;;;;;;718.70;662.40;;;1.60;99.90;;;;;;4985222;28;20481;-82
2023/01/19 08:56:16;;;;;;;718.73;662.60;;;1.70;99.90;;;;;;4983642;28;20521;-80
2023/01/19 08:58:45;;;;;;;718.10;661.83;;;1.70;99.90;;;;;;4983191;28;20482;-82
2023/01/19 09:01:15;;;;;;;711.07;654.77;;;1.70;99.90;;;;;;4983507;28;20475;-81
2023/01/19 09:03:43;;;;;;;717.00;661.27;;;1.70;99.90;;;;;;4983300;28;20478;-82
2023/01/19 09:06:15;;;;;;;717.20;661.10;;;1.70;99.90;;;;;;4982852;28;20550;-80
2023/01/19 09:08:46;;;;;;;723.03;666.40;;;1.80;99.90;;;;;;4983756;28;20452;-81
2023/01/19 09:11:17;;;;;;;730.20;674.83;;;1.80;99.90;;;;;;4984234;28;20475;-82
2023/01/19 09:13:45;;;;;;;716.40;662.90;;;1.80;99.90;;;;;;4983474;28;20443;-82
2023/01/19 09:16:13;;;;;;;733.73;678.93;;;1.80;99.90;;;;;;4983001;28;20486;-82
2023/01/19 09:18:41;;;;;;;730.23;674.67;;;1.80;99.90;;;;;;4982751;28;20517;-82
2023/01/19 09:21:09;;;;;;;725.67;672.63;;;1.90;99.90;;;;;;4983366;28;20541;-81
2023/01/19 09:23:37;;;;;;;723.43;669.83;;;1.80;99.90;;;;;;4986719;28;20459;-78
2023/01/19 09:26:05;;;;;;;717.10;664.60;;;1.90;99.90;;;;;;4985359;28;20900;-80
2023/01/19 09:28:32;;;;;;;711.77;661.67;;;2.00;99.90;;;;;;4983947;28;20455;-80
2023/01/19 09:30:59;;;;;;;713.93;664.13;;;1.80;99.90;;;;;;4982575;28;20490;-81
2023/01/19 09:33:26;;;;;;;718.47;667.70;;;1.80;99.90;;;;;;4982962;28;20451;-81
2023/01/19 09:36:01;;;;;;;720.60;669.30;;;1.70;99.90;;;;;;4982648;28;20495;-81
2023/01/19 09:38:30;;;;;;;721.37;667.77;;;1.80;99.90;;;;;;4982069;28;20458;-81
2023/01/19 09:41:00;;;;;;;716.07;665.27;;;1.80;99.90;;;;;;4982547;28;20455;-81
2023/01/19 09:43:38;;;;;;;713.78;660.97;;;1.80;99.90;;;;;;4982375;28;20458;-80
2023/01/19 09:46:12;;;;;;;731.13;673.65;;;1.70;99.90;;;;;;4981562;28;20513;-79
2023/01/19 09:48:45;;;;;;;726.43;672.67;;;1.60;99.90;;;;;;4982468;28;20210;-81
2023/01/19 09:51:16;;;;;;;723.40;669.33;;;1.60;99.90;;;;;;4982099;28;20502;-80
2023/01/19 09:54:01;;;;;;;719.15;665.72;;;1.60;99.90;;;;;;4982270;28;20537;-81
2023/01/19 09:56:31;;;;;;;738.20;680.30;;;1.70;99.90;;;;;;4980023;28;20461;-80
2023/01/19 09:58:59;;;;;;;713.90;659.17;;;1.70;99.90;;;;;;4982127;28;20209;-80
2023/01/19 10:01:37;;;;;;;712.50;657.97;;;1.80;99.90;;;;;;4981506;28;20510;-80
2023/01/19 10:04:27;;;;;;;706.10;653.57;;;1.80;99.90;;;;;;4982137;28;20442;-80
2023/01/19 10:07:06;;;;;;;707.73;655.97;;;1.90;99.90;;;;;;4981375;28;20431;-81
2023/01/19 10:09:41;;;;;;;704.13;653.43;;;2.00;99.90;;;;;;4981342;28;20447;-81
2023/01/19 10:12:17;;;;;;;709.97;658.70;;;2.00;99.90;;;;;;4981557;28;20493;-81
2023/01/19 10:14:51;;;;;;;702.03;654.03;;;2.00;99.90;;;;;;4983467;28;20474;-79
2023/01/19 10:17:36;;;;;;;691.97;640.65;;;2.00;99.90;;;;;;4984285;28;20462;-79
2023/01/19 10:20:04;;;;;;;699.60;649.97;;;2.20;99.90;;;;;;4983203;28;20626;-78
2023/01/19 10:22:37;;;;;;;697.17;649.63;;;2.20;99.90;;;;;;4983692;28;20475;-80
2023/01/19 10:25:14;;;;;;;691.20;643.27;;;2.20;99.90;;;;;;4985107;28;20482;-78
2023/01/19 10:27:43;;;;;;;677.65;631.00;;;2.20;99.90;;;;;;4983879;28;20463;-81
2023/01/19 10:30:21;;;;;;;688.03;642.07;;;2.30;99.90;;;;;;4985670;28;20199;-80
2023/01/19 10:32:50;;;;;;;682.30;638.13;;;2.30;99.90;;;;;;4985959;28;20482;-81
2023/01/19 10:35:23;;;;;;;679.87;637.97;;;2.40;99.90;;;;;;4985949;28;20482;-80
2023/01/19 10:37:50;;;;;;;682.07;638.00;;;2.40;99.90;;;;;;4985506;28;20505;-81
2023/01/19 10:40:27;;;;;;;678.93;636.20;;;2.50;99.90;;;;;;4985864;28;20462;-80
2023/01/19 10:42:59;;;;;;;675.27;634.60;;;2.40;99.90;;;;;;4985683;28;20477;-79
2023/01/19 10:45:34;;;;;;;678.73;636.70;;;2.50;99.90;;;;;;4986007;28;20992;-80
2023/01/19 10:48:14;;;;;;;663.07;623.63;;;2.60;99.90;;;;;;4986704;28;20940;-80
2023/01/19 10:50:47;;;;;;;652.07;613.50;;;2.60;99.90;;;;;;4986412;28;20529;-80
2023/01/19 10:53:24;;;;;;;654.00;615.80;;;2.70;99.90;;;;;;4985664;28;20479;-80
2023/01/19 10:56:21;;;;;;;653.67;616.80;;;2.70;99.90;;;;;;4983432;28;20478;-80
2023/01/19 10:58:56;;;;;;;645.67;609.77;;;2.70;99.90;;;;;;4983700;28;20451;-80
2023/01/19 11:01:29;;;;;;;643.97;606.83;;;2.80;99.90;;;;;;4984666;28;20478;-80
2023/01/19 11:04:04;;;;;;;626.00;591.53;;;2.90;99.90;;;;;;4985036;28;20451;-80
2023/01/19 11:09:22;;;;;;;614.47;583.43;;;3.20;99.90;;;;;;4979672;28;20459;-79
2023/01/19 11:11:53;;;;;;;624.10;590.70;;;3.10;99.90;;;;;;4978370;28;20479;-79
2023/01/19 11:14:28;;;;;;;592.23;563.27;;;3.00;99.90;;;;;;4979497;28;20482;-79
2023/01/19 11:17:06;;;;;;;608.90;579.10;;;2.90;99.90;;;;;;4982981;28;20572;-80
2023/01/19 11:19:34;;;;;;;601.50;571.60;;;2.90;99.90;;;;;;4986633;28;20477;-81
2023/01/19 11:22:21;;;;;;;602.23;571.20;;;3.00;99.90;;;;;;4985820;28;20546;-81
2023/01/19 11:24:54;;;;;;;585.03;554.73;;;3.10;99.90;;;;;;4986269;28;20814;-80
2023/01/19 11:27:22;;;;;;;556.77;529.93;;;3.20;99.90;;;;;;4985664;28;20447;-81
2023/01/19 11:30:04;;;;;;;548.37;520.97;;;3.40;99.90;;;;;;4986175;28;20451;-81
2023/01/19 11:32:35;;;;;;;473.00;452.03;;;3.30;99.90;;;;;;4986181;28;20510;-81
2023/01/19 11:35:24;;;;;;;462.80;442.80;;;3.30;99.90;;;;;;4985989;28;20505;-81
2023/01/19 11:38:04;;;;;;;551.83;526.50;;;3.30;99.90;;;;;;4985702;28;20517;-81
2023/01/19 11:40:36;;;;;;;544.13;519.80;;;3.30;99.90;;;;;;4986564;28;20454;-81
2023/01/19 11:43:11;;;;;;;517.03;493.87;;;3.40;99.90;;;;;;4986284;28;20473;-80
2023/01/19 11:45:40;;;;;;;531.87;507.57;;;3.30;99.90;;;;;;4985468;28;20461;-81
2023/01/19 11:48:15;;;;;;;491.37;470.47;;;3.40;99.90;;;;;;4986140;28;20455;-81
2023/01/19 11:50:45;;;;;;;480.70;459.27;;;3.40;99.90;;;;;;4981095;28;20511;-80
2023/01/19 11:53:18;;;;;;;495.30;473.37;;;3.40;99.90;;;;;;4984153;28;20486;-80
2023/01/19 11:56:23;;;;;;;509.10;486.80;;;3.40;99.90;;;;;;4984240;28;20505;-79
2023/01/19 11:58:51;;;;;;;506.87;483.80;;;3.30;99.90;;;;;;4984085;28;20458;-80
2023/01/19 12:01:24;;;;;;;474.87;454.27;;;3.30;99.90;;;;;;4984456;28;20486;-80
2023/01/19 12:03:56;;;;;;;430.67;412.00;;;3.30;99.90;;;;;;4983576;28;20443;-80
2023/01/19 12:06:27;;;;;;;473.80;454.00;;;3.10;99.90;;;;;;4983823;28;20436;-80
2023/01/19 12:09:00;;;;;;;467.97;448.07;;;3.40;99.90;;;;;;4999129;28;20836;-81
2023/01/19 12:11:32;;;;;;;404.67;387.60;;;3.70;99.90;;;;;;4996926;28;20542;-78
2023/01/19 12:14:00;;;;;;;355.87;341.47;;;3.90;99.90;;;;;;4996706;28;20492;-78
2023/01/19 12:16:30;;;;;;;183.73;174.43;;;4.40;99.90;;;;;;4996992;28;20488;-78
2023/01/19 12:19:01;;;;;;;183.50;175.03;;;4.50;99.90;;;;;;4997069;28;20508;-79
2023/01/19 12:21:27;;;;;;;112.23;106.10;;;4.50;99.90;;;;;;4997190;28;20480;-78
2023/01/19 12:24:04;;;;;;;70.37;65.50;;;4.50;99.90;;;;;;5000681;28;20460;-79
2023/01/19 12:26:38;;;;;;;41.83;37.70;;;4.90;99.90;;;;;;5001000;28;20453;-79
2023/01/19 12:29:11;;;;;;;73.83;68.23;;;4.90;99.90;;;;;;5001240;28;20438;-80
2023/01/19 12:31:42;;;;;;;50.37;28.63;;;4.70;99.90;;;;;;5000351;28;20854;-79
2023/01/19 12:34:40;;;;;;;35.30;29.23;;;4.50;99.90;;;;;;5000616;28;20443;-79
2023/01/19 12:37:28;;;;;;;44.33;33.83;;;4.10;99.90;;;;;;4999094;28;20473;-80
2023/01/19 12:39:58;;;;;;;41.07;36.40;;;4.10;99.90;;;;;;4999436;28;20435;-79
2023/01/19 12:42:26;;;;;;;37.13;33.40;;;3.90;99.90;;;;;;4998852;28;20480;-79
2023/01/19 12:45:06;;;;;;;42.20;32.83;;;4.00;99.90;;;;;;4999862;28;20469;-78